createdAt,value
2023-05-09T00:02:19.202Z,9.50
2023-05-09T00:04:47.652Z,9.50
2023-05-09T00:07:15.690Z,9.40
2023-05-09T00:09:43.620Z,9.40
2023-05-09T00:12:12.300Z,9.40
2023-05-09T00:14:42.614Z,9.30
2023-05-09T00:17:10.824Z,9.30
2023-05-09T00:19:39.082Z,9.30
2023-05-09T00:22:07.022Z,9.30
2023-05-09T00:24:34.874Z,9.30
2023-05-09T00:27:02.749Z,9.20
2023-05-09T00:29:30.589Z,9.20
2023-05-09T00:31:59.862Z,9.20
2023-05-09T00:34:28.068Z,9.10
2023-05-09T00:36:56.140Z,9.10
2023-05-09T00:39:24.087Z,9.00
2023-05-09T00:41:52.919Z,9.00
2023-05-09T00:44:21.219Z,8.90
2023-05-09T00:46:49.494Z,8.90
2023-05-09T00:49:18.715Z,8.80
2023-05-09T00:51:48.398Z,8.80
2023-05-09T00:54:16.339Z,8.80
2023-05-09T00:56:44.322Z,8.90
2023-05-09T00:59:12.935Z,9.40
2023-05-09T01:01:40.909Z,9.70
2023-05-09T01:04:08.940Z,10.00
2023-05-09T01:06:53.058Z,10.20
2023-05-09T01:09:33.417Z,10.30
2023-05-09T01:12:14.705Z,10.50
2023-05-09T01:14:55.265Z,10.60
2023-05-09T01:17:35.516Z,10.70
2023-05-09T01:20:14.240Z,10.80
2023-05-09T01:22:53.559Z,10.90
2023-05-09T01:25:55.091Z,11.00
2023-05-09T01:28:57.376Z,11.10
2023-05-09T01:31:28.231Z,11.10
2023-05-09T01:34:03.728Z,11.20
2023-05-09T01:36:34.374Z,11.30
2023-05-09T01:39:05.248Z,11.30
2023-05-09T01:41:38.705Z,11.30
2023-05-09T01:44:11.914Z,11.30
2023-05-09T01:46:43.336Z,11.30
2023-05-09T01:49:14.573Z,11.30
2023-05-09T01:51:44.590Z,11.30
2023-05-09T01:54:15.025Z,11.40
2023-05-09T01:56:45.654Z,11.30
2023-05-09T01:59:16.876Z,11.40
2023-05-09T02:01:48.268Z,11.40
2023-05-09T02:04:19.723Z,11.50
2023-05-09T02:06:51.706Z,11.50
2023-05-09T02:09:21.044Z,11.40
2023-05-09T02:11:49.349Z,11.40
2023-05-09T02:14:17.694Z,11.40
2023-05-09T02:16:47.264Z,11.40
2023-05-09T02:19:15.267Z,11.40
2023-05-09T02:21:43.447Z,11.20
2023-05-09T02:24:12.300Z,10.60
2023-05-09T02:26:41.875Z,10.10
2023-05-09T02:29:12.006Z,9.60
2023-05-09T02:31:46.464Z,9.10
2023-05-09T02:34:17.556Z,8.70
2023-05-09T02:36:45.908Z,8.50
2023-05-09T02:39:14.029Z,8.30
2023-05-09T02:41:49.005Z,8.20
2023-05-09T02:44:16.877Z,8.10
2023-05-09T02:46:44.788Z,7.90
2023-05-09T02:49:22.819Z,7.80
2023-05-09T02:52:01.469Z,7.70
2023-05-09T02:54:29.706Z,7.50
2023-05-09T02:56:57.749Z,7.40
2023-05-09T02:59:27.061Z,7.30
2023-05-09T03:01:55.206Z,7.40
2023-05-09T03:04:23.413Z,7.00
2023-05-09T03:06:51.496Z,7.20
2023-05-09T03:09:20.722Z,7.10
2023-05-09T03:11:48.606Z,7.10
2023-05-09T03:14:16.586Z,7.10
2023-05-09T03:16:45.033Z,7.20
2023-05-09T03:19:22.041Z,7.10
2023-05-09T03:21:50.197Z,7.20
2023-05-09T03:24:19.769Z,7.20
2023-05-09T03:26:47.709Z,7.20
2023-05-09T03:29:15.650Z,7.20
2023-05-09T03:31:43.608Z,7.20
2023-05-09T03:34:15.131Z,7.20
2023-05-09T03:36:44.646Z,7.10
2023-05-09T03:39:14.572Z,7.10
2023-05-09T03:41:49.783Z,7.00
2023-05-09T03:44:18.533Z,7.00
2023-05-09T03:46:46.536Z,7.10
2023-05-09T03:49:14.588Z,7.10
2023-05-09T03:51:43.271Z,7.20
2023-05-09T03:54:15.318Z,7.30
2023-05-09T03:56:43.423Z,7.40
2023-05-09T03:59:12.987Z,7.40
2023-05-09T04:01:41.007Z,7.50
2023-05-09T04:04:09.966Z,7.60
2023-05-09T04:06:38.241Z,7.70
2023-05-09T04:09:11.491Z,7.90
2023-05-09T04:11:42.266Z,7.90
2023-05-09T04:14:14.234Z,8.00
2023-05-09T04:16:43.487Z,7.90
2023-05-09T04:19:11.649Z,8.00
2023-05-09T04:21:42.569Z,8.00
2023-05-09T04:24:10.859Z,8.10
2023-05-09T04:26:43.342Z,8.30
2023-05-09T04:29:16.060Z,8.50
2023-05-09T04:31:48.830Z,8.70
2023-05-09T04:34:17.599Z,8.90
2023-05-09T04:36:45.700Z,9.10
2023-05-09T04:39:13.961Z,9.50
2023-05-09T04:41:50.312Z,9.90
2023-05-09T04:44:20.117Z,10.40
2023-05-09T04:46:48.134Z,11.00
2023-05-09T04:49:16.121Z,11.00
2023-05-09T04:51:50.098Z,11.00
2023-05-09T04:54:18.093Z,10.90
2023-05-09T04:56:48.310Z,10.80
2023-05-09T04:59:18.041Z,11.10
2023-05-09T05:01:48.496Z,11.50
2023-05-09T05:04:16.660Z,11.90
2023-05-09T05:06:44.627Z,12.50
2023-05-09T05:09:12.606Z,13.20
2023-05-09T05:11:47.347Z,13.80
2023-05-09T05:14:21.259Z,14.70
2023-05-09T05:16:51.208Z,15.50
2023-05-09T05:19:19.436Z,16.00
2023-05-09T05:21:47.482Z,16.30
2023-05-09T05:24:15.445Z,16.20
2023-05-09T05:26:43.999Z,16.10
2023-05-09T05:29:13.688Z,16.00
2023-05-09T05:31:41.914Z,15.60
2023-05-09T05:34:11.173Z,15.20
2023-05-09T05:36:39.618Z,15.00
2023-05-09T05:39:07.928Z,14.70
2023-05-09T05:41:36.539Z,14.60
2023-05-09T05:44:07.297Z,14.80
2023-05-09T05:46:36.139Z,15.30
2023-05-09T05:49:04.614Z,16.00
2023-05-09T05:51:35.931Z,16.70
2023-05-09T05:54:06.005Z,16.90
2023-05-09T05:56:34.753Z,17.00
2023-05-09T05:59:03.228Z,16.90
2023-05-09T06:01:31.171Z,16.80
2023-05-09T06:04:00.185Z,17.00
2023-05-09T06:06:32.270Z,17.00
2023-05-09T06:09:01.589Z,17.20
2023-05-09T06:11:29.522Z,17.20
2023-05-09T06:13:57.652Z,17.40
2023-05-09T06:16:25.638Z,17.90
2023-05-09T06:18:55.929Z,18.50
2023-05-09T06:21:24.802Z,18.40
2023-05-09T06:24:06.690Z,18.50
2023-05-09T06:26:41.475Z,18.30
2023-05-09T06:29:09.839Z,17.70
2023-05-09T06:31:38.975Z,17.10
2023-05-09T06:34:07.920Z,16.80
2023-05-09T06:36:36.304Z,16.60
2023-05-09T06:39:04.328Z,16.70
2023-05-09T06:41:35.123Z,16.00
2023-05-09T06:44:04.509Z,16.00
2023-05-09T06:46:32.445Z,16.20
2023-05-09T06:49:01.737Z,16.70
2023-05-09T06:51:30.041Z,16.90
2023-05-09T06:53:58.066Z,16.40
2023-05-09T06:56:26.935Z,15.90
2023-05-09T06:58:55.192Z,16.00
2023-05-09T07:01:24.444Z,16.50
2023-05-09T07:03:52.428Z,16.70
2023-05-09T07:06:20.653Z,16.90
2023-05-09T07:08:48.581Z,16.90
2023-05-09T07:11:16.583Z,16.70
2023-05-09T07:13:44.463Z,16.60
2023-05-09T07:16:12.417Z,16.90
2023-05-09T07:18:41.828Z,17.00
2023-05-09T07:21:10.089Z,17.00
2023-05-09T07:23:38.016Z,17.30
2023-05-09T07:26:05.980Z,17.80
2023-05-09T07:28:33.895Z,18.30
2023-05-09T07:31:01.766Z,18.50
2023-05-09T07:33:30.140Z,18.50
2023-05-09T07:36:01.600Z,18.50
2023-05-09T07:38:31.686Z,19.00
2023-05-09T07:40:59.779Z,19.40
2023-05-09T07:43:27.661Z,19.70
2023-05-09T07:45:55.879Z,20.10
2023-05-09T07:48:23.825Z,20.20
2023-05-09T07:50:51.808Z,20.30
2023-05-09T07:53:21.193Z,20.40
2023-05-09T07:55:50.152Z,20.40
2023-05-09T07:58:18.257Z,20.10
2023-05-09T08:00:46.387Z,20.30
2023-05-09T08:03:14.561Z,20.40
2023-05-09T08:05:42.572Z,20.30
2023-05-09T08:08:10.501Z,20.20
2023-05-09T08:10:40.041Z,20.40
2023-05-09T08:13:08.048Z,20.70
2023-05-09T08:15:36.155Z,20.50
2023-05-09T08:18:04.203Z,20.10
2023-05-09T08:20:34.580Z,19.80
2023-05-09T08:23:05.493Z,20.30
2023-05-09T08:25:33.550Z,20.70
2023-05-09T08:28:02.821Z,21.20
2023-05-09T08:30:31.012Z,21.80
2023-05-09T08:32:58.985Z,21.80
2023-05-09T08:35:27.263Z,22.20
2023-05-09T08:37:55.166Z,22.50
2023-05-09T08:40:23.323Z,22.40
2023-05-09T08:42:52.148Z,22.50
2023-05-09T08:45:30.453Z,22.20
2023-05-09T08:47:59.707Z,21.70
2023-05-09T08:50:27.701Z,21.40
2023-05-09T08:52:56.313Z,21.60
2023-05-09T08:55:24.606Z,21.40
2023-05-09T08:57:53.460Z,21.30
2023-05-09T09:00:23.730Z,20.90
2023-05-09T09:02:53.203Z,20.70
2023-05-09T09:05:40.137Z,20.50
2023-05-09T09:08:12.698Z,20.40
2023-05-09T09:10:43.467Z,20.50
2023-05-09T09:13:13.675Z,20.90
2023-05-09T09:15:46.712Z,21.40
2023-05-09T09:18:23.052Z,21.00
2023-05-09T09:20:57.516Z,20.60
2023-05-09T09:23:27.690Z,20.60
2023-05-09T09:26:00.422Z,21.20
2023-05-09T09:28:28.862Z,21.60
2023-05-09T09:30:58.180Z,21.60
2023-05-09T09:33:29.481Z,21.40
2023-05-09T09:35:59.623Z,20.80
2023-05-09T09:38:28.007Z,21.00
2023-05-09T09:40:56.942Z,20.80
2023-05-09T09:43:32.864Z,21.00
2023-05-09T09:46:05.002Z,21.00
2023-05-09T09:48:35.858Z,21.20
2023-05-09T09:51:09.969Z,21.10
2023-05-09T09:53:41.355Z,21.00
2023-05-09T09:56:09.768Z,20.80
2023-05-09T09:58:38.329Z,21.00
2023-05-09T10:01:14.620Z,20.90
2023-05-09T10:03:44.978Z,21.00
2023-05-09T10:06:14.475Z,20.80
2023-05-09T10:08:44.538Z,21.10
2023-05-09T10:11:12.770Z,21.30
2023-05-09T10:13:41.340Z,21.00
2023-05-09T10:16:11.130Z,20.50
2023-05-09T10:18:43.630Z,20.40
2023-05-09T10:21:16.327Z,20.40
2023-05-09T10:23:50.908Z,20.60
2023-05-09T10:26:27.702Z,20.90
2023-05-09T10:28:58.507Z,21.10
2023-05-09T10:31:30.133Z,21.10
2023-05-09T10:34:02.759Z,21.30
2023-05-09T10:36:31.144Z,21.30
2023-05-09T10:38:59.678Z,21.00
2023-05-09T10:41:27.832Z,20.90
2023-05-09T10:43:57.807Z,20.50
2023-05-09T10:46:28.295Z,20.30
2023-05-09T10:48:56.958Z,20.60
2023-05-09T10:51:25.845Z,20.50
2023-05-09T10:53:55.980Z,20.60
2023-05-09T10:56:26.391Z,20.60
2023-05-09T10:58:54.521Z,20.50
2023-05-09T11:01:37.385Z,20.50
2023-05-09T11:04:12.685Z,20.60
2023-05-09T11:06:49.489Z,20.50
2023-05-09T11:09:28.584Z,20.50
2023-05-09T11:11:58.908Z,20.50
2023-05-09T11:14:34.564Z,20.30
2023-05-09T11:17:06.499Z,20.50
2023-05-09T11:19:58.913Z,20.70
2023-05-09T11:22:29.164Z,20.70
2023-05-09T11:25:09.642Z,20.70
2023-05-09T11:27:44.286Z,20.70
2023-05-09T11:30:15.410Z,20.40
2023-05-09T11:32:47.758Z,20.40
2023-05-09T11:35:18.267Z,20.40
2023-05-09T11:37:49.961Z,20.40
2023-05-09T11:40:20.323Z,20.40
2023-05-09T11:42:50.854Z,20.40
2023-05-09T11:45:19.078Z,20.50
2023-05-09T11:47:49.938Z,20.50
2023-05-09T11:50:20.635Z,20.60
2023-05-09T11:52:50.342Z,20.60
2023-05-09T11:55:22.137Z,20.40
2023-05-09T11:57:52.498Z,20.40
2023-05-09T12:00:23.055Z,20.40
2023-05-09T12:02:53.647Z,20.50
2023-05-09T12:05:23.746Z,20.60
2023-05-09T12:07:52.358Z,20.50
2023-05-09T12:10:23.857Z,20.40
2023-05-09T12:12:55.567Z,20.30
2023-05-09T12:15:24.190Z,20.20
2023-05-09T12:18:05.668Z,20.00
2023-05-09T12:20:46.517Z,19.90
2023-05-09T12:23:15.662Z,20.00
2023-05-09T12:25:50.009Z,20.00
2023-05-09T12:28:19.467Z,20.10
2023-05-09T12:30:47.807Z,20.00
2023-05-09T12:33:18.056Z,19.90
2023-05-09T12:35:48.233Z,20.00
2023-05-09T12:38:22.189Z,20.10
2023-05-09T12:40:50.882Z,19.70
2023-05-09T12:43:19.115Z,19.70
2023-05-09T12:45:47.173Z,19.70
2023-05-09T12:48:16.621Z,19.50
2023-05-09T12:50:48.438Z,19.60
2023-05-09T12:53:25.527Z,19.70
2023-05-09T12:55:57.353Z,19.90
2023-05-09T12:58:30.547Z,20.10
2023-05-09T13:00:58.798Z,20.10
2023-05-09T13:03:31.255Z,20.10
2023-05-09T13:06:01.215Z,20.10
2023-05-09T13:08:30.580Z,20.10
2023-05-09T13:11:12.099Z,20.00
2023-05-09T13:13:43.771Z,20.00
2023-05-09T13:16:14.070Z,19.90
2023-05-09T13:18:45.695Z,19.70
2023-05-09T13:21:13.645Z,19.70
2023-05-09T13:23:42.150Z,19.90
2023-05-09T13:26:10.382Z,20.00
2023-05-09T13:28:38.357Z,20.20
2023-05-09T13:31:06.908Z,20.10
2023-05-09T13:33:35.205Z,20.10
2023-05-09T13:36:06.229Z,20.30
2023-05-09T13:38:39.041Z,20.40
2023-05-09T13:41:07.459Z,20.60
2023-05-09T13:43:37.520Z,20.80
2023-05-09T13:46:05.618Z,20.70
2023-05-09T13:48:33.613Z,20.70
2023-05-09T13:51:01.596Z,20.80
2023-05-09T13:53:31.354Z,20.80
2023-05-09T13:55:59.269Z,20.50
2023-05-09T13:58:27.914Z,20.30
2023-05-09T14:00:55.827Z,20.30
2023-05-09T14:03:24.367Z,20.30
2023-05-09T14:05:52.384Z,20.50
2023-05-09T14:08:21.324Z,20.70
2023-05-09T14:10:51.101Z,20.60
2023-05-09T14:13:19.124Z,20.60
2023-05-09T14:15:47.205Z,20.60
2023-05-09T14:18:18.435Z,20.70
2023-05-09T14:20:48.104Z,20.60
2023-05-09T14:23:19.356Z,20.50
2023-05-09T14:25:47.615Z,20.50
2023-05-09T14:28:17.526Z,20.50
2023-05-09T14:30:45.599Z,20.50
2023-05-09T14:33:14.416Z,20.60
2023-05-09T14:35:42.661Z,20.50
2023-05-09T14:38:12.400Z,20.30
2023-05-09T14:40:41.000Z,20.50
2023-05-09T14:43:09.373Z,20.20
2023-05-09T14:45:39.139Z,20.40
2023-05-09T14:48:07.486Z,20.40
2023-05-09T14:50:35.560Z,20.40
2023-05-09T14:53:04.023Z,20.40
2023-05-09T14:55:32.502Z,20.50
2023-05-09T14:58:00.544Z,20.30
2023-05-09T15:00:29.219Z,20.10
2023-05-09T15:02:58.680Z,20.10
2023-05-09T15:05:26.992Z,20.00
2023-05-09T15:07:55.219Z,20.00
2023-05-09T15:10:23.897Z,19.90
2023-05-09T15:12:52.197Z,19.90
2023-05-09T15:15:24.007Z,19.90
2023-05-09T15:17:52.885Z,20.00
2023-05-09T15:20:22.368Z,20.00
2023-05-09T15:22:51.443Z,20.10
2023-05-09T15:25:19.715Z,20.00
2023-05-09T15:27:50.299Z,19.90
2023-05-09T15:30:18.416Z,19.80
2023-05-09T15:32:46.875Z,19.70
2023-05-09T15:35:15.890Z,19.70
2023-05-09T15:37:45.525Z,19.60
2023-05-09T15:40:14.264Z,19.50
2023-05-09T15:42:42.482Z,19.50
2023-05-09T15:45:10.945Z,19.50
2023-05-09T15:47:39.256Z,19.40
2023-05-09T15:50:09.267Z,19.30
2023-05-09T15:52:37.373Z,19.40
2023-05-09T15:55:09.675Z,19.40
2023-05-09T15:57:37.688Z,19.30
2023-05-09T16:00:07.342Z,19.40
2023-05-09T16:02:42.063Z,19.30
2023-05-09T16:05:10.669Z,19.30
2023-05-09T16:07:38.909Z,19.40
2023-05-09T16:10:09.922Z,19.40
2023-05-09T16:12:38.136Z,19.30
2023-05-09T16:15:08.273Z,19.10
2023-05-09T16:17:36.244Z,19.20
2023-05-09T16:20:04.901Z,19.20
2023-05-09T16:22:32.877Z,19.20
2023-05-09T16:25:00.780Z,19.20
2023-05-09T16:27:30.083Z,19.10
2023-05-09T16:29:57.976Z,19.00
2023-05-09T16:32:26.188Z,18.90
2023-05-09T16:34:54.267Z,18.90
2023-05-09T16:37:22.190Z,19.00
2023-05-09T16:39:50.306Z,19.00
2023-05-09T16:42:18.201Z,19.00
2023-05-09T16:44:48.959Z,18.90
2023-05-09T16:47:16.865Z,18.90
2023-05-09T16:49:44.783Z,18.70
2023-05-09T16:52:13.335Z,18.70
2023-05-09T16:54:41.215Z,18.70
2023-05-09T16:57:09.423Z,18.70
2023-05-09T16:59:37.451Z,18.70
2023-05-09T17:02:07.511Z,18.70
2023-05-09T17:04:37.548Z,18.60
2023-05-09T17:07:08.719Z,18.50
2023-05-09T17:09:39.503Z,18.50
2023-05-09T17:12:08.082Z,18.50
2023-05-09T17:14:36.487Z,18.40
2023-05-09T17:17:05.813Z,18.40
2023-05-09T17:19:34.660Z,18.30
2023-05-09T17:22:04.312Z,18.20
2023-05-09T17:24:32.436Z,18.10
2023-05-09T17:27:00.424Z,18.10
2023-05-09T17:29:30.935Z,18.10
2023-05-09T17:32:00.555Z,18.00
2023-05-09T17:34:30.598Z,17.90
2023-05-09T17:37:02.013Z,17.90
2023-05-09T17:39:30.057Z,17.80
2023-05-09T17:41:57.999Z,17.90
2023-05-09T17:44:25.994Z,17.90
2023-05-09T17:46:54.093Z,17.80
2023-05-09T17:49:22.477Z,17.70
2023-05-09T17:51:53.098Z,17.70
2023-05-09T17:54:21.114Z,17.60
2023-05-09T17:56:51.030Z,17.60
2023-05-09T17:59:19.443Z,17.60
2023-05-09T18:01:47.418Z,17.50
2023-05-09T18:04:15.471Z,17.40
2023-05-09T18:06:43.451Z,17.30
2023-05-09T18:09:12.729Z,17.20
2023-05-09T18:11:43.614Z,17.10
2023-05-09T18:14:12.818Z,17.10
2023-05-09T18:16:40.701Z,17.00
2023-05-09T18:19:08.615Z,16.90
2023-05-09T18:21:36.562Z,16.90
2023-05-09T18:24:04.979Z,16.80
2023-05-09T18:26:34.171Z,16.70
2023-05-09T18:29:02.477Z,16.70
2023-05-09T18:31:31.277Z,16.60
2023-05-09T18:33:59.524Z,16.60
2023-05-09T18:36:30.019Z,16.50
2023-05-09T18:38:57.946Z,16.40
2023-05-09T18:41:26.688Z,16.40
2023-05-09T18:43:58.632Z,16.30
2023-05-09T18:46:27.968Z,16.20
2023-05-09T18:48:56.419Z,16.10
2023-05-09T18:51:25.266Z,16.00
2023-05-09T18:53:53.415Z,16.00
2023-05-09T18:56:22.097Z,15.80
2023-05-09T18:58:50.629Z,15.70
2023-05-09T19:01:20.621Z,15.50
2023-05-09T19:03:53.978Z,15.50
2023-05-09T19:06:24.018Z,15.50
2023-05-09T19:08:52.076Z,15.40
2023-05-09T19:11:20.097Z,15.40
2023-05-09T19:13:49.340Z,15.30
2023-05-09T19:16:21.606Z,15.30
2023-05-09T19:18:50.163Z,15.20
2023-05-09T19:21:18.803Z,15.20
2023-05-09T19:23:47.714Z,15.10
2023-05-09T19:26:16.647Z,15.10
2023-05-09T19:28:45.738Z,15.00
2023-05-09T19:31:14.723Z,14.90
2023-05-09T19:33:46.232Z,14.90
2023-05-09T19:36:14.289Z,14.80
2023-05-09T19:38:42.212Z,14.70
2023-05-09T19:41:13.882Z,14.60
2023-05-09T19:43:41.779Z,14.50
2023-05-09T19:46:10.096Z,14.30
2023-05-09T19:48:38.056Z,14.20
2023-05-09T19:51:08.804Z,14.20
2023-05-09T19:53:36.764Z,14.10
2023-05-09T19:56:07.863Z,14.10
2023-05-09T19:58:36.490Z,14.10
2023-05-09T20:01:07.055Z,14.00
2023-05-09T20:03:40.768Z,14.00
2023-05-09T20:06:10.221Z,13.90
2023-05-09T20:08:38.114Z,13.90
2023-05-09T20:11:06.489Z,13.80
2023-05-09T20:13:35.154Z,13.90
2023-05-09T20:16:03.987Z,13.90
2023-05-09T20:18:33.453Z,14.00
2023-05-09T20:21:01.523Z,13.90
2023-05-09T20:23:31.095Z,14.00
2023-05-09T20:25:59.075Z,14.00
2023-05-09T20:28:27.006Z,14.10
2023-05-09T20:30:54.955Z,14.00
2023-05-09T20:33:22.872Z,14.00
2023-05-09T20:35:51.077Z,14.10
2023-05-09T20:38:19.607Z,14.10
2023-05-09T20:40:49.089Z,14.10
2023-05-09T20:43:17.030Z,14.20
2023-05-09T20:45:45.004Z,14.20
2023-05-09T20:48:13.625Z,14.30
2023-05-09T20:50:41.556Z,14.20
2023-05-09T20:53:09.447Z,14.30
2023-05-09T20:55:37.345Z,14.30
2023-05-09T20:58:06.584Z,14.30
2023-05-09T21:00:34.679Z,14.20
2023-05-09T21:03:03.041Z,14.20
2023-05-09T21:05:30.986Z,14.20
2023-05-09T21:07:58.882Z,14.10
2023-05-09T21:10:26.904Z,14.10
2023-05-09T21:12:54.827Z,13.90
2023-05-09T21:15:24.229Z,13.90
2023-05-09T21:17:52.194Z,13.90
2023-05-09T21:20:20.144Z,13.90
2023-05-09T21:22:48.169Z,13.90
2023-05-09T21:25:17.372Z,13.80
2023-05-09T21:27:46.184Z,13.80
2023-05-09T21:30:14.387Z,13.80
2023-05-09T21:32:44.142Z,13.90
2023-05-09T21:35:13.137Z,13.80
2023-05-09T21:37:41.082Z,13.80
2023-05-09T21:40:10.907Z,13.70
2023-05-09T21:42:40.220Z,13.70
2023-05-09T21:45:09.360Z,13.70
2023-05-09T21:47:39.497Z,13.70
2023-05-09T21:50:10.255Z,13.60
2023-05-09T21:52:38.237Z,13.60
2023-05-09T21:55:09.954Z,13.50
2023-05-09T21:57:38.149Z,13.40
2023-05-09T22:00:08.256Z,13.40
2023-05-09T22:02:42.801Z,13.50
2023-05-09T22:05:12.773Z,13.40
2023-05-09T22:07:41.234Z,13.40
2023-05-09T22:10:12.191Z,13.30
2023-05-09T22:12:40.130Z,13.30
2023-05-09T22:15:09.384Z,13.00
2023-05-09T22:17:37.566Z,12.90
2023-05-09T22:20:07.212Z,12.90
2023-05-09T22:22:36.487Z,12.90
2023-05-09T22:25:05.314Z,12.80
2023-05-09T22:27:33.271Z,12.90
2023-05-09T22:30:02.734Z,12.80
2023-05-09T22:32:33.162Z,12.70
2023-05-09T22:35:01.051Z,12.70
2023-05-09T22:37:28.982Z,12.60
2023-05-09T22:40:00.829Z,12.60
2023-05-09T22:42:29.260Z,12.70
2023-05-09T22:44:57.370Z,12.60
2023-05-09T22:47:25.293Z,12.50
2023-05-09T22:49:53.386Z,12.50
2023-05-09T22:52:21.309Z,12.50
2023-05-09T22:54:49.191Z,12.50
2023-05-09T22:57:20.466Z,12.60
2023-05-09T22:59:48.447Z,12.50
2023-05-09T23:02:16.632Z,12.60
2023-05-09T23:04:44.571Z,12.60
2023-05-09T23:07:13.295Z,12.50
2023-05-09T23:09:41.265Z,12.60
2023-05-09T23:12:10.618Z,12.60
2023-05-09T23:14:40.006Z,12.70
2023-05-09T23:17:07.890Z,12.90
2023-05-09T23:19:35.858Z,13.00
2023-05-09T23:22:04.024Z,13.00
2023-05-09T23:24:31.931Z,12.90
2023-05-09T23:26:59.907Z,12.90
2023-05-09T23:29:28.045Z,12.90
2023-05-09T23:31:57.456Z,12.90
2023-05-09T23:34:25.793Z,13.00
2023-05-09T23:36:54.042Z,13.00
2023-05-09T23:39:22.233Z,12.90
2023-05-09T23:41:50.557Z,13.00
2023-05-09T23:44:18.598Z,12.90
2023-05-09T23:46:46.539Z,12.90
2023-05-09T23:49:16.443Z,12.90
2023-05-09T23:51:44.360Z,13.00
2023-05-09T23:54:12.596Z,13.00
2023-05-09T23:56:41.069Z,13.10
2023-05-09T23:59:08.982Z,13.10
